Time;durP1;ratioP1;P1;durP2;ratioP2;P2;SDS_P1;SDS_P2;PMS_P1;PMS_P2;Temp;Humidity;BMP_temperature;BMP_pressure;BME280_temperature;BME280_humidity;BME280_pressure;Samples;Min_cycle;Max_cycle;Signal;HPM_P1;HPM_P2
2021/04/05 00:01:31;;;;;;;;;150.50;127.75;;;;;3.88;75.62;100993.56;5046635;28;8831;-71
2021/04/05 00:04:27;;;;;;;;;146.50;122.25;;;;;3.78;76.53;100987.31;5047792;28;8834;-71
2021/04/05 00:07:22;;;;;;;;;224.25;171.25;;;;;3.67;76.98;100974.75;5052033;28;8834;-71
2021/04/05 00:10:29;;;;;;;;;267.50;206.50;;;;;3.79;77.66;100972.56;5043765;28;8862;-71
2021/04/05 00:13:30;;;;;;;;;298.25;217.50;;;;;3.83;77.63;100977.19;5051812;28;8838;-70
2021/04/05 00:16:26;;;;;;;;;311.00;222.00;;;;;3.74;77.30;100978.84;5051999;28;8835;-70
2021/04/05 00:19:22;;;;;;;;;362.75;272.75;;;;;3.90;77.06;100964.00;5044622;28;8850;-70
2021/04/05 00:22:17;;;;;;;;;449.75;312.25;;;;;3.88;76.94;100971.69;5051784;28;8858;-70
2021/04/05 00:25:13;;;;;;;;;482.75;346.25;;;;;3.84;76.83;100969.81;5051588;28;8865;-71
2021/04/05 00:28:09;;;;;;;;;461.50;313.00;;;;;3.83;76.59;100962.66;5052025;28;8846;-71
2021/04/05 00:31:05;;;;;;;;;425.00;284.75;;;;;3.79;77.10;100970.63;5051671;28;9673;-70
2021/04/05 00:34:01;;;;;;;;;381.75;240.00;;;;;3.86;77.02;100962.13;5047770;28;8916;-70
2021/04/05 00:36:56;;;;;;;;;479.25;339.75;;;;;3.90;77.07;100974.13;5046320;28;8860;-71
2021/04/05 00:39:52;;;;;;;;;472.75;354.00;;;;;3.77;76.38;100980.22;5044405;28;8924;-71
2021/04/05 00:42:48;;;;;;;;;436.75;316.50;;;;;3.70;76.62;100983.25;5052040;28;8870;-70
2021/04/05 00:45:46;;;;;;;;;418.00;303.75;;;;;3.66;77.51;100976.69;5050616;28;8826;-71
2021/04/05 00:48:41;;;;;;;;;435.50;311.25;;;;;3.64;77.27;100984.34;5052178;28;8967;-70
2021/04/05 00:51:37;;;;;;;;;383.25;276.00;;;;;3.68;77.19;100982.72;5052747;28;8834;-70
2021/04/05 00:54:33;;;;;;;;;322.50;237.75;;;;;3.61;77.47;100979.44;5047950;28;8858;-71
2021/04/05 00:57:29;;;;;;;;;375.25;267.00;;;;;3.47;77.76;100986.59;5052541;28;8838;-71
2021/04/05 01:00:46;;;;;;;;;295.00;197.00;;;;;3.40;77.71;100984.13;5051508;28;8839;-70
2021/04/05 01:03:44;;;;;;;;;323.00;250.00;;;;;3.55;77.21;100989.56;5047702;28;9012;-71
2021/04/05 01:06:40;;;;;;;;;321.25;252.00;;;;;3.48;77.87;100993.69;5052562;28;8842;-71
2021/04/05 01:09:36;;;;;;;;;341.25;248.00;;;;;3.55;77.83;100996.97;5047710;28;8839;-71
2021/04/05 01:12:32;;;;;;;;;291.25;252.25;;;;;3.54;77.32;100992.59;5051649;28;8873;-71
2021/04/05 01:15:28;;;;;;;;;336.25;240.50;;;;;3.52;77.31;101002.97;5051809;28;8851;-71
2021/04/05 01:18:24;;;;;;;;;287.25;214.50;;;;;3.44;77.78;100998.06;5056621;28;8847;-71
2021/04/05 01:21:19;;;;;;;;;295.00;241.25;;;;;3.35;77.98;101001.34;5055645;28;8827;-71
2021/04/05 01:24:15;;;;;;;;;289.75;222.50;;;;;3.34;78.23;101012.56;5055218;28;8862;-71
2021/04/05 01:27:10;;;;;;;;;271.00;220.50;;;;;3.39;77.97;101018.03;5054982;28;8937;-71
2021/04/05 01:30:27;;;;;;;;;152.00;93.25;;;;;3.26;77.84;101008.47;5050753;28;8924;-71
2021/04/05 01:33:23;;;;;;;;;247.25;185.75;;;;;3.29;77.83;101007.09;5067531;28;8831;-71
2021/04/05 01:36:19;;;;;;;;;182.75;160.50;;;;;3.24;77.95;100999.72;5054780;28;8843;-71
2021/04/05 01:39:14;;;;;;;;;208.50;160.00;;;;;3.27;77.81;100993.69;5050621;28;8815;-71
2021/04/05 01:42:10;;;;;;;;;234.00;165.00;;;;;3.27;77.78;100993.69;5050374;28;8827;-71
2021/04/05 01:45:06;;;;;;;;;233.25;177.00;;;;;3.31;78.09;100994.00;5048825;28;8945;-71
2021/04/05 01:48:03;;;;;;;;;223.50;173.50;;;;;3.35;78.08;100993.16;5049431;28;8838;-71
2021/04/05 01:51:04;;;;;;;;;244.75;189.50;;;;;3.33;77.99;100984.41;5055493;28;8862;-71
2021/04/05 01:53:59;;;;;;;;;246.25;189.00;;;;;3.34;77.54;100987.97;5055055;28;8835;-71
2021/04/05 01:56:55;;;;;;;;;271.75;192.75;;;;;3.23;78.39;100980.88;5055050;28;8826;-72
2021/04/05 01:59:51;;;;;;;;;244.50;215.00;;;;;3.25;78.72;100970.47;5054251;28;8861;-72
2021/04/05 02:02:47;;;;;;;;;305.50;230.00;;;;;3.33;77.96;100978.13;5054549;28;8823;-71
2021/04/05 02:05:50;;;;;;;;;285.25;200.00;;;;;3.26;77.91;100969.38;5055521;28;8901;-71
2021/04/05 02:08:47;;;;;;;;;323.00;225.75;;;;;3.48;77.52;100967.16;5050962;28;8935;-70
2021/04/05 02:11:43;;;;;;;;;318.25;232.50;;;;;3.33;77.53;100975.38;5054357;28;8834;-70
2021/04/05 02:14:39;;;;;;;;;353.00;244.75;;;;;3.14;77.77;100983.31;5047401;28;8924;-70
2021/04/05 02:17:36;;;;;;;;;346.50;245.50;;;;;3.24;77.95;100979.78;5054231;28;8861;-71
2021/04/05 02:20:33;;;;;;;;;285.50;223.25;;;;;3.13;77.98;100986.31;5053105;28;8819;-71
2021/04/05 02:23:28;;;;;;;;;319.50;244.75;;;;;3.06;78.67;100984.69;5052425;28;8846;-70
2021/04/05 02:26:26;;;;;;;;;400.75;282.75;;;;;3.25;77.84;100989.63;5054850;28;8862;-70
2021/04/05 02:29:22;;;;;;;;;407.25;280.25;;;;;3.17;78.10;100990.16;5052796;28;8839;-70
2021/04/05 02:32:17;;;;;;;;;387.50;276.50;;;;;3.10;78.21;100976.78;5053933;28;8866;-71
2021/04/05 02:35:13;;;;;;;;;462.75;321.75;;;;;3.14;78.25;100979.75;5054547;28;8835;-71
2021/04/05 02:38:10;;;;;;;;;438.25;300.25;;;;;3.13;78.02;100984.41;5054239;28;8935;-70
2021/04/05 02:41:11;;;;;;;;;392.00;275.00;;;;;3.15;77.82;100984.97;5050276;28;8835;-71
2021/04/05 02:44:08;;;;;;;;;428.50;278.25;;;;;3.14;78.23;100971.56;5052166;28;8846;-71
2021/04/05 02:47:05;;;;;;;;;348.00;264.75;;;;;3.02;78.83;100986.34;5054849;28;8855;-71
2021/04/05 02:50:06;;;;;;;;;213.25;147.25;;;;;3.09;78.92;100985.25;5053690;28;8827;-71
2021/04/05 02:53:07;;;;;;;;;312.00;239.50;;;;;3.08;78.28;100973.50;5052764;28;8935;-71
2021/04/05 02:56:05;;;;;;;;;267.50;171.75;;;;;3.06;78.27;100978.41;5047996;28;9004;-71
2021/04/05 02:59:02;;;;;;;;;333.50;229.25;;;;;3.09;78.77;100972.41;5046486;28;8965;-70
2021/04/05 03:01:59;;;;;;;;;384.00;275.75;;;;;3.07;78.71;100977.34;5049666;28;8850;-71
2021/04/05 03:04:55;;;;;;;;;381.50;280.00;;;;;3.17;78.45;100966.38;5053741;28;8997;-71
2021/04/05 03:07:52;;;;;;;;;378.50;259.50;;;;;3.10;78.43;100971.31;5053727;28;8827;-71
2021/04/05 03:10:47;;;;;;;;;415.50;279.50;;;;;3.12;78.44;100971.84;5052746;28;8850;-71
2021/04/05 03:13:43;;;;;;;;;348.00;263.25;;;;;3.09;78.75;100971.59;5053575;28;8896;-70
2021/04/05 03:16:40;;;;;;;;;368.25;259.50;;;;;3.08;79.15;100956.28;5051769;28;8847;-71
2021/04/05 03:19:40;;;;;;;;;436.50;304.00;;;;;3.28;78.42;100956.25;5053981;28;8839;-72
2021/04/05 03:22:39;;;;;;;;;396.25;276.75;;;;;3.17;78.11;100951.91;5053544;28;8865;-72
2021/04/05 03:25:34;;;;;;;;;351.25;249.50;;;;;3.14;78.34;100957.91;5049197;28;8827;-71
2021/04/05 03:28:30;;;;;;;;;317.00;228.00;;;;;3.09;78.66;100953.28;5047939;28;8920;-71
2021/04/05 03:31:30;;;;;;;;;301.00;220.25;;;;;3.27;78.20;100958.16;5053115;28;8835;-71
2021/04/05 03:34:29;;;;;;;;;272.75;203.50;;;;;3.31;78.40;100955.72;5046885;28;9568;-71
2021/04/05 03:37:28;;;;;;;;;257.75;182.75;;;;;3.20;78.32;100943.97;5052480;28;8835;-74
2021/04/05 03:40:24;;;;;;;;;217.25;171.75;;;;;3.34;77.70;100941.47;5053005;28;8854;-73
2021/04/05 03:43:27;;;;;;;;;226.25;172.75;;;;;3.39;77.47;100938.75;5044960;28;8834;-73
2021/04/05 03:46:27;;;;;;;;;265.25;179.00;;;;;3.38;77.75;100937.13;5052645;28;8919;-73
2021/04/05 03:49:37;;;;;;;;;245.50;174.00;;;;;3.37;78.26;100932.72;5052337;28;8857;-74
2021/04/05 03:52:34;;;;;;;;;229.00;181.00;;;;;3.43;78.25;100936.25;5052641;28;8834;-74
2021/04/05 03:55:32;;;;;;;;;152.25;131.00;;;;;3.32;78.85;100933.56;5052996;28;8826;-73
2021/04/05 03:58:31;;;;;;;;;211.75;158.75;;;;;3.45;79.14;100937.66;5044699;28;8884;-73
2021/04/05 04:01:29;;;;;;;;;205.50;163.25;;;;;3.64;78.56;100940.59;5046533;28;8826;-74
2021/04/05 04:04:41;;;;;;;;;208.00;160.00;;;;;3.59;78.14;100944.16;5052615;28;8854;-73
2021/04/05 04:07:44;;;;;;;;;162.00;134.25;;;;;3.44;78.94;100944.19;5045790;28;9618;-73
2021/04/05 04:10:48;;;;;;;;;198.25;151.00;;;;;3.62;78.46;100940.06;5051472;28;8940;-72
2021/04/05 04:13:47;;;;;;;;;195.75;147.75;;;;;3.56;78.21;100941.97;5047851;28;8865;-73
2021/04/05 04:16:44;;;;;;;;;183.75;139.00;;;;;3.51;78.68;100939.25;5043494;28;8830;-73
2021/04/05 04:19:41;;;;;;;;;171.25;138.75;;;;;3.65;78.07;100942.22;5051164;28;8835;-73
2021/04/05 04:22:37;;;;;;;;;183.00;142.50;;;;;3.65;78.72;100944.13;5052315;28;8927;-73
2021/04/05 04:25:33;;;;;;;;;136.75;129.00;;;;;3.76;78.31;100943.84;5051187;28;8843;-73
2021/04/05 04:28:29;;;;;;;;;165.00;128.25;;;;;3.81;78.47;100937.50;5047685;28;8873;-72
2021/04/05 04:31:25;;;;;;;;;165.25;135.75;;;;;3.83;78.28;100935.31;5048903;28;9688;-72
2021/04/05 04:34:22;;;;;;;;;175.50;132.50;;;;;3.90;78.17;100941.31;5050238;28;8846;-73
2021/04/05 04:37:19;;;;;;;;;169.50;130.75;;;;;3.92;78.18;100936.38;5049380;28;9003;-73
2021/04/05 04:40:19;;;;;;;;;183.50;144.00;;;;;4.00;78.26;100924.03;5049405;28;8949;-73
2021/04/05 04:43:16;;;;;;;;;193.00;148.00;;;;;4.05;78.34;100932.22;5049122;28;8870;-73
2021/04/05 04:46:12;;;;;;;;;191.00;153.75;;;;;3.99;78.11;100927.84;5050504;28;8835;-72
2021/04/05 04:49:14;;;;;;;;;199.50;162.25;;;;;4.10;78.33;100923.97;5048597;28;8851;-72
2021/04/05 04:52:09;;;;;;;;;212.75;161.25;;;;;4.10;78.86;100926.72;5050423;28;8834;-72
2021/04/05 04:55:06;;;;;;;;;232.25;180.50;;;;;4.30;78.52;100918.41;5050054;28;8831;-72
2021/04/05 04:58:03;;;;;;;;;256.00;188.75;;;;;4.37;78.15;100915.31;5051612;28;8842;-72
2021/04/05 05:00:59;;;;;;;;;260.00;188.25;;;;;4.56;78.69;100908.06;5053206;28;8819;-73
2021/04/05 05:03:57;;;;;;;;;212.25;161.75;;;;;4.58;78.48;100903.13;5054686;28;8823;-73
2021/04/05 05:06:56;;;;;;;;;226.50;152.50;;;;;4.66;78.18;100902.50;5051597;28;8954;-72
2021/04/05 05:09:52;;;;;;;;;232.75;183.00;;;;;4.80;78.35;100913.63;5053596;28;8877;-72
2021/04/05 05:12:48;;;;;;;;;196.50;156.25;;;;;4.95;77.49;100905.28;5055097;28;8818;-73
2021/04/05 05:15:45;;;;;;;;;192.50;162.25;;;;;4.84;78.15;100905.69;5054483;28;8843;-73
2021/04/05 05:18:41;;;;;;;;;189.75;135.25;;;;;4.92;77.71;100905.88;5054326;28;8882;-72
2021/04/05 05:21:50;;;;;;;;;213.25;151.00;;;;;4.96;76.62;100906.91;5053533;28;8854;-72
2021/04/05 05:24:23;;;;;;;;;168.75;121.25;;;;;5.05;77.29;100907.09;5054400;28;8839;-72
2021/04/05 05:26:54;;;;;;;;;178.00;134.50;;;;;4.97;76.90;100907.72;5053944;28;9014;-73
2021/04/05 05:29:23;;;;;;;;;191.00;132.50;;;;;5.12;76.55;100912.25;5053474;28;8850;-73
2021/04/05 05:31:59;;;;;;;;;199.50;152.75;;;;;5.13;76.20;100905.66;5052944;28;8969;-73
2021/04/05 05:34:28;;;;;;;;;204.50;149.00;;;;;5.08;76.71;100912.03;5053966;28;8999;-73
2021/04/05 05:37:06;;;;;;;;;185.75;150.75;;;;;5.20;76.25;100915.19;5047526;28;8867;-74
2021/04/05 05:40:04;;;;;;;;;178.75;138.00;;;;;5.22;76.82;100910.25;5052988;28;8872;-74
2021/04/05 05:43:14;;;;;;;;;224.25;167.50;;;;;5.32;76.16;100909.31;5056503;28;8847;-75
2021/04/05 05:46:29;;;;;;;;;192.25;154.00;;;;;5.40;76.73;100911.44;5052844;28;8997;-74
2021/04/05 05:49:10;;;;;;;;;208.25;158.25;;;;;5.64;75.97;100913.34;5055011;28;9239;-74
2021/04/05 05:52:18;;;;;;;;;183.25;143.75;;;;;5.47;76.55;100903.66;5054360;28;8861;-75
2021/04/05 05:55:26;;;;;;;;;195.00;145.25;;;;;5.51;76.93;100907.44;5055091;28;9005;-75
2021/04/05 05:58:45;;;;;;;;;217.75;155.50;;;;;5.62;76.50;100908.16;5047048;28;8972;-74
2021/04/05 06:01:56;;;;;;;;;218.50;160.50;;;;;5.70;75.83;100910.25;5035515;28;8950;-74
2021/04/05 06:05:10;;;;;;;;;202.50;157.50;;;;;5.89;75.69;100901.25;5049840;28;8834;-74
2021/04/05 06:08:19;;;;;;;;;213.75;168.00;;;;;6.08;76.02;100896.63;5052751;28;8859;-74
2021/04/05 06:11:42;;;;;;;;;243.00;180.00;;;;;6.20;75.43;100905.22;5051465;28;8847;-74
2021/04/05 06:14:32;;;;;;;;;257.50;182.25;;;;;6.31;74.19;100906.75;5051657;28;8846;-74
2021/04/05 06:17:18;;;;;;;;;255.00;203.50;;;;;6.42;74.53;100907.41;5051565;28;8886;-74
2021/04/05 06:20:36;;;;;;;;;274.50;224.00;;;;;6.66;74.37;100899.88;5051125;28;8976;-73
2021/04/05 06:23:28;;;;;;;;;290.25;208.75;;;;;6.84;73.45;100903.72;5056985;28;8868;-74
2021/04/05 06:26:45;;;;;;;;;322.25;229.75;;;;;7.04;73.11;100910.78;5054086;28;8977;-74
2021/04/05 06:29:28;;;;;;;;;280.50;212.50;;;;;7.24;73.73;100906.84;5009741;28;9616;-74
2021/04/05 06:32:19;;;;;;;;;281.00;219.50;;;;;7.44;73.17;100913.94;5060437;28;8839;-74
2021/04/05 06:35:23;;;;;;;;;279.25;202.50;;;;;7.71;72.93;100904.84;5051770;28;8835;-72
2021/04/05 06:37:58;;;;;;;;;310.50;229.50;;;;;7.72;73.69;100896.28;5051797;28;8957;-74
2021/04/05 06:40:34;;;;;;;;;285.25;212.00;;;;;7.96;72.39;100901.56;5051852;28;8851;-74
2021/04/05 06:43:40;;;;;;;;;235.25;182.50;;;;;8.08;71.76;100896.34;5032665;28;8846;-74
2021/04/05 06:46:58;;;;;;;;;259.25;208.00;;;;;8.20;72.27;100901.31;5051946;28;8865;-73
2021/04/05 06:50:33;;;;;;;;;192.25;157.75;;;;;8.31;72.60;100890.88;5057601;28;8900;-73
2021/04/05 06:53:54;;;;;;;;;140.00;111.00;;;;;8.35;71.59;100892.72;5059576;28;8878;-72
2021/04/05 06:56:52;;;;;;;;;81.00;64.00;;;;;8.40;70.83;100886.28;5053495;28;8913;-72
2021/04/05 07:00:01;;;;;;;;;85.33;65.00;;;;;8.42;72.40;100877.72;5057183;28;11656;-75
2021/04/05 07:02:51;;;;;;;;;68.50;56.00;;;;;8.76;71.93;100875.22;5056177;28;12522;-73
2021/04/05 07:05:55;;;;;;;;;61.75;52.00;;;;;8.93;71.89;100873.72;5055195;28;11539;-72
2021/04/05 07:09:07;;;;;;;;;65.25;54.75;;;;;9.00;70.21;100866.63;5062921;28;12329;-73
2021/04/05 07:12:30;;;;;;;;;62.00;52.50;;;;;8.91;70.54;100865.75;5052056;28;11620;-72
2021/04/05 07:15:13;;;;;;;;;63.75;52.75;;;;;9.24;70.99;100862.69;5051152;28;11613;-73
2021/04/05 07:18:03;;;;;;;;;64.00;53.50;;;;;9.38;70.28;100853.16;5052229;28;11579;-72
2021/04/05 07:21:20;;;;;;;;;58.50;50.25;;;;;9.41;70.19;100852.50;5050943;28;11604;-73
2021/04/05 07:24:07;;;;;;;;;55.75;48.00;;;;;9.50;69.81;100847.03;5051651;28;11572;-74
2021/04/05 07:27:02;;;;;;;;;60.50;51.50;;;;;9.64;69.84;100846.91;5072558;28;11600;-74
2021/04/05 07:29:57;;;;;;;;;59.50;50.75;;;;;9.57;70.22;100843.78;5048660;28;11630;-72
2021/04/05 07:33:04;;;;;;;;;62.00;49.50;;;;;9.90;69.61;100849.75;5048946;28;11594;-72
2021/04/05 07:36:08;;;;;;;;;64.00;50.75;;;;;10.13;69.61;100840.19;5051852;28;11617;-72
2021/04/05 07:39:30;;;;;;;;;57.25;49.00;;;;;10.09;67.96;100833.66;5067267;28;11753;-72
2021/04/05 07:42:52;;;;;;;;;59.50;49.50;;;;;9.99;67.52;100834.00;4995185;28;11562;-73
2021/04/05 07:45:50;;;;;;;;;54.00;46.00;;;;;9.95;67.56;100833.00;4996997;28;11593;-74
2021/04/05 07:49:10;;;;;;;;;55.50;47.00;;;;;9.96;69.05;100824.38;5052798;28;11619;-73
2021/04/05 07:52:21;;;;;;;;;55.50;47.75;;;;;10.00;68.85;100827.31;5052107;28;11544;-72
2021/04/05 07:55:18;;;;;;;;;60.50;50.75;;;;;10.12;69.94;100827.50;5049058;28;11583;-73
2021/04/05 07:58:51;;;;;;;;;52.50;42.50;;;;;10.23;67.64;100819.72;5052387;28;13301;-72
2021/04/05 08:02:11;;;;;;;;;56.25;47.75;;;;;10.25;67.76;100814.69;5048408;28;11580;-72
2021/04/05 08:05:44;;;;;;;;;47.00;42.75;;;;;10.36;66.74;100810.47;5050417;28;11594;-73
2021/04/05 08:08:55;;;;;;;;;46.50;40.25;;;;;10.61;66.52;100819.03;5047305;28;11734;-72
2021/04/05 08:12:14;;;;;;;;;57.75;47.50;;;;;10.74;64.37;100818.88;5050646;28;12373;-73
2021/04/05 08:15:49;;;;;;;;;50.00;40.50;;;;;11.03;64.39;100823.66;5050566;28;11619;-73
2021/04/05 08:18:47;;;;;;;;;45.75;40.75;;;;;10.86;62.81;100824.50;5052889;28;11604;-74
2021/04/05 08:21:21;;;;;;;;;44.00;37.50;;;;;11.03;63.82;100828.38;5052407;28;11567;-75
2021/04/05 08:24:20;;;;;;;;;32.25;32.25;;;;;10.96;60.81;100833.59;5051420;28;12355;-73
2021/04/05 08:27:31;;;;;;;;;31.00;30.50;;;;;11.29;60.15;100820.00;5055420;28;11518;-73
2021/04/05 08:30:35;;;;;;;;;33.50;33.50;;;;;11.33;59.97;100807.91;5060287;28;11510;-74
2021/04/05 08:33:17;;;;;;;;;35.00;35.00;;;;;11.41;59.24;100817.31;5056180;28;12316;-73
2021/04/05 08:36:51;;;;;;;;;32.25;32.00;;;;;11.37;59.61;100813.59;5052379;28;11441;-73
2021/04/05 08:40:02;;;;;;;;;35.50;33.00;;;;;11.57;59.30;100814.78;5055931;28;11507;-73
2021/04/05 08:43:35;;;;;;;;;70.50;55.00;;;;;11.72;60.82;100810.63;5053724;28;11218;-72
2021/04/05 08:46:32;;;;;;;;;55.75;47.00;;;;;11.49;61.62;100804.56;5053979;28;11611;-73
2021/04/05 08:49:29;;;;;;;;;65.00;52.00;;;;;11.49;61.25;100807.31;5052847;28;11687;-74
2021/04/05 08:52:29;;;;;;;;;67.25;55.50;;;;;11.61;62.59;100805.47;5052514;28;11655;-75
2021/04/05 08:55:29;;;;;;;;;60.00;50.50;;;;;11.58;61.06;100800.63;5054743;28;11596;-73
2021/04/05 08:58:32;;;;;;;;;66.75;53.00;;;;;11.69;61.69;100803.81;5055823;28;11572;-74
2021/04/05 09:01:49;;;;;;;;;57.25;48.25;;;;;11.64;60.97;100806.75;5052545;28;11568;-73
2021/04/05 09:04:47;;;;;;;;;56.75;49.00;;;;;11.62;60.80;100800.75;5055276;28;11598;-75
2021/04/05 09:07:49;;;;;;;;;57.25;47.50;;;;;11.64;59.51;100788.16;5051942;28;11554;-73
2021/04/05 09:10:52;;;;;;;;;58.50;48.50;;;;;11.70;59.44;100788.78;5054619;28;11594;-74
2021/04/05 09:13:43;;;;;;;;;56.25;46.25;;;;;11.81;61.19;100790.06;5054088;28;11507;-74
2021/04/05 09:17:07;;;;;;;;;56.75;48.25;;;;;11.96;58.65;100783.94;5060793;28;11684;-72
2021/04/05 09:20:20;;;;;;;;;55.25;46.75;;;;;11.99;58.59;100789.94;5052596;28;11742;-72
2021/04/05 09:23:20;;;;;;;;;55.00;46.75;;;;;11.96;57.43;100789.47;5052759;28;11609;-73
2021/04/05 09:26:13;;;;;;;;;50.00;43.25;;;;;12.27;56.68;100781.84;5053936;28;11523;-74
2021/04/05 09:29:11;;;;;;;;;52.00;43.00;;;;;12.17;55.81;100786.66;5053885;28;11628;-73
2021/04/05 09:32:33;;;;;;;;;53.00;43.25;;;;;12.11;56.29;100774.16;5053503;28;11730;-72
2021/04/05 09:35:21;;;;;;;;;44.75;40.25;;;;;12.12;55.22;100777.78;5053357;28;11647;-74
2021/04/05 09:38:34;;;;;;;;;44.00;36.75;;;;;12.23;55.07;100773.41;5050701;28;12434;-72
2021/04/05 09:41:30;;;;;;;;;44.50;40.50;;;;;11.92;56.03;100763.56;5052356;28;11600;-72
2021/04/05 09:44:27;;;;;;;;;45.00;41.00;;;;;12.31;55.53;100769.75;5053056;28;11525;-72
2021/04/05 09:48:17;;;;;;;;;43.00;39.00;;;;;12.18;54.58;100765.31;5054606;28;11545;-73
2021/04/05 09:51:14;;;;;;;;;41.75;38.00;;;;;12.12;55.25;100763.91;4990566;28;11553;-74
2021/04/05 09:54:09;;;;;;;;;31.50;31.50;;;;;12.13;55.21;100759.97;5051099;28;11575;-73
2021/04/05 09:56:59;;;;;;;;;45.25;38.50;;;;;11.81;55.38;100756.81;5053068;28;11208;-72
2021/04/05 09:59:49;;;;;;;;;37.50;35.00;;;;;12.18;54.84;100745.91;5053445;28;11564;-73
2021/04/05 10:02:37;;;;;;;;;34.00;33.00;;;;;12.28;52.21;100755.78;5053788;28;11167;-72
2021/04/05 10:05:06;;;;;;;;;32.25;32.00;;;;;12.71;54.47;100745.03;5052525;28;10963;-72
2021/04/05 10:07:40;;;;;;;;;29.00;29.00;;;;;12.97;52.33;100749.47;5051856;28;11187;-70
2021/04/05 10:10:09;;;;;;;;;26.50;26.50;;;;;13.25;52.98;100747.66;5052845;28;10901;-71
2021/04/05 10:12:38;;;;;;;;;23.25;23.25;;;;;13.14;52.60;100745.66;5069563;28;10722;-72
2021/04/05 10:15:34;;;;;;;;;31.00;30.50;;;;;13.60;50.66;100736.84;5047714;28;10772;-74
2021/04/05 10:18:32;;;;;;;;;25.25;25.00;;;;;13.47;50.50;100734.44;5053028;28;10413;-72
2021/04/05 10:21:29;;;;;;;;;37.75;34.00;;;;;13.43;50.77;100739.09;5054490;28;10244;-73
2021/04/05 10:24:28;;;;;;;;;34.00;32.75;;;;;13.37;50.19;100729.38;5055287;28;10818;-72
2021/04/05 10:27:29;;;;;;;;;26.75;26.75;;;;;13.12;50.00;100732.13;5060506;28;10699;-72
2021/04/05 10:30:33;;;;;;;;;29.75;29.75;;;;;13.00;50.19;100732.13;5064934;28;10425;-72
2021/04/05 10:33:33;;;;;;;;;29.25;29.25;;;;;12.94;50.55;100733.50;5062379;28;10704;-72
2021/04/05 10:36:28;;;;;;;;;30.50;29.75;;;;;12.80;51.62;100726.31;5063124;28;10669;-72
2021/04/05 10:39:24;;;;;;;;;28.00;28.00;;;;;12.67;51.38;100718.31;5062139;28;10386;-72
2021/04/05 10:42:39;;;;;;;;;24.75;24.75;;;;;12.41;52.28;100715.81;5059283;28;10723;-73
2021/04/05 10:45:38;;;;;;;;;31.25;30.50;;;;;12.49;54.71;100714.91;5052374;28;10680;-72
2021/04/05 10:49:16;;;;;;;;;38.25;36.00;;;;;12.35;53.96;100715.25;5064661;28;11468;-72
2021/04/05 10:52:25;;;;;;;;;36.25;35.50;;;;;12.09;54.35;100707.16;5051835;28;11067;-72
2021/04/05 10:55:25;;;;;;;;;43.25;39.75;;;;;12.00;55.23;100709.22;5053679;28;11088;-72
2021/04/05 10:58:27;;;;;;;;;40.50;38.00;;;;;11.80;55.94;100713.59;5053950;28;11724;-73
2021/04/05 11:01:24;;;;;;;;;35.75;33.00;;;;;11.36;59.80;100710.34;5047846;28;11267;-72
2021/04/05 11:03:54;;;;;;;;;32.25;30.25;;;;;11.14;60.50;100710.63;5050385;28;11233;-72
2021/04/05 11:06:28;;;;;;;;;34.50;33.00;;;;;11.25;60.84;100700.78;5052817;28;11234;-73
2021/04/05 11:09:15;;;;;;;;;39.00;36.75;;;;;11.14;61.33;100710.63;5050627;28;11521;-72
2021/04/05 11:11:50;;;;;;;;;39.25;38.00;;;;;11.27;63.28;100701.28;5056530;28;11544;-73
2021/04/05 11:14:27;;;;;;;;;39.75;38.00;;;;;11.11;63.25;100705.75;5053184;28;11487;-72
2021/04/05 11:17:24;;;;;;;;;45.25;41.50;;;;;11.05;64.91;100693.25;5054412;28;11525;-72
2021/04/05 11:20:12;;;;;;;;;50.50;41.00;;;;;11.03;65.18;100688.03;5052245;28;11534;-72
2021/04/05 11:22:42;;;;;;;;;47.25;39.75;;;;;11.09;65.18;100691.44;5044788;28;11563;-73
2021/04/05 11:25:21;;;;;;;;;47.50;42.00;;;;;11.00;64.16;100679.59;5047633;28;11508;-71
2021/04/05 11:27:59;;;;;;;;;48.75;41.50;;;;;10.97;61.92;100677.53;5052101;28;11645;-72
2021/04/05 11:30:58;;;;;;;;;46.50;41.50;;;;;10.97;62.31;100666.44;5050285;28;11658;-71
2021/04/05 11:33:57;;;;;;;;;49.50;42.75;;;;;11.14;61.53;100669.09;5052266;28;11536;-71
2021/04/05 11:36:48;;;;;;;;;49.00;41.75;;;;;11.39;60.73;100665.34;5052923;28;12246;-71
2021/04/05 11:39:27;;;;;;;;;38.75;37.00;;;;;11.72;61.44;100663.78;5050927;28;11555;-72
2021/04/05 11:42:13;;;;;;;;;36.00;35.00;;;;;11.45;56.40;100662.38;5054100;28;11637;-74
2021/04/05 11:44:53;;;;;;;;;36.75;33.25;;;;;11.47;55.12;100669.19;5051783;28;11528;-72
2021/04/05 11:47:51;;;;;;;;;33.75;33.75;;;;;11.68;56.65;100671.97;5047198;28;11750;-72
2021/04/05 11:50:48;;;;;;;;;32.50;31.00;;;;;11.99;55.30;100665.22;5048768;28;11258;-72
2021/04/05 11:53:30;;;;;;;;;26.50;26.50;;;;;11.73;56.18;100660.69;5051069;28;11146;-72
2021/04/05 11:56:26;;;;;;;;;29.25;28.50;;;;;11.95;56.29;100653.97;5050407;28;11853;-73
2021/04/05 11:59:02;;;;;;;;;31.25;31.25;;;;;12.01;56.10;100654.59;5049893;28;10965;-72
2021/04/05 12:02:02;;;;;;;;;22.75;22.75;;;;;12.28;55.07;100656.75;5050639;28;10743;-72
2021/04/05 12:05:18;;;;;;;;;27.00;27.00;;;;;11.79;54.56;100644.66;5050988;28;10575;-72
2021/04/05 12:08:24;;;;;;;;;29.50;29.50;;;;;12.38;53.37;100653.53;5059418;28;10749;-73
2021/04/05 12:11:26;;;;;;;;;21.50;21.00;;;;;12.47;54.52;100654.25;5050111;28;10785;-73
2021/04/05 12:14:05;;;;;;;;;22.25;22.00;;;;;12.76;52.23;100650.47;5050622;28;10817;-73
2021/04/05 12:16:37;;;;;;;;;18.25;18.25;;;;;12.56;53.65;100656.09;5048907;28;10574;-73
2021/04/05 12:19:06;;;;;;;;;23.25;23.25;;;;;12.90;51.36;100654.84;5050912;28;10505;-73
2021/04/05 12:22:03;;;;;;;;;23.00;23.00;;;;;12.77;52.27;100657.63;5050864;28;10337;-71
2021/04/05 12:25:04;;;;;;;;;24.00;24.00;;;;;13.01;50.63;100644.91;5049908;28;11366;-72
2021/04/05 12:28:02;;;;;;;;;28.50;26.75;;;;;13.30;48.45;100641.88;5049887;28;10501;-72
2021/04/05 12:30:59;;;;;;;;;24.25;24.25;;;;;13.64;47.67;100645.25;5049497;28;10736;-73
2021/04/05 12:34:12;;;;;;;;;24.50;24.50;;;;;13.75;47.64;100646.38;5049345;28;10259;-72
2021/04/05 12:37:16;;;;;;;;;26.50;26.50;;;;;13.89;46.66;100641.22;5051147;28;11279;-72
2021/04/05 12:40:13;;;;;;;;;24.00;24.00;;;;;14.12;47.93;100638.69;5046434;28;10364;-72
2021/04/05 12:43:15;;;;;;;;;21.75;21.75;;;;;14.36;45.04;100640.50;5050413;28;10081;-72
2021/04/05 12:46:19;;;;;;;;;22.50;22.25;;;;;14.24;42.75;100635.00;5049142;28;9937;-73
2021/04/05 12:49:20;;;;;;;;;26.25;26.25;;;;;14.30;45.96;100627.22;5051533;28;10979;-71
2021/04/05 12:51:57;;;;;;;;;25.00;24.00;;;;;14.56;44.27;100635.88;5052258;28;10102;-71
2021/04/05 12:54:53;;;;;;;;;29.00;29.00;;;;;14.33;43.55;100632.06;5050232;28;9722;-72
2021/04/05 12:57:55;;;;;;;;;23.50;23.00;;;;;14.30;44.11;100639.16;5047375;28;9932;-73
2021/04/05 13:00:51;;;;;;;;;17.25;17.25;;;;;13.90;46.22;100637.28;5051244;28;9916;-72
2021/04/05 13:03:51;;;;;;;;;20.75;20.75;;;;;13.74;46.64;100632.84;5049111;28;9687;-73
2021/04/05 13:07:01;;;;;;;;;21.75;21.75;;;;;13.59;47.71;100626.88;5050661;28;10031;-72
2021/04/05 13:10:02;;;;;;;;;17.50;17.50;;;;;13.29;48.18;100626.38;5049933;28;10737;-72
2021/04/05 13:13:03;;;;;;;;;19.00;19.00;;;;;13.40;48.31;100629.47;5051387;28;10059;-74
2021/04/05 13:16:00;;;;;;;;;20.25;20.00;;;;;13.19;47.54;100628.78;5056725;28;10094;-73
2021/04/05 13:19:02;;;;;;;;;19.75;19.75;;;;;12.79;49.01;100630.31;5052397;28;10361;-73
2021/04/05 13:22:01;;;;;;;;;21.75;21.75;;;;;12.69;49.09;100616.94;5051795;28;10256;-74
2021/04/05 13:25:03;;;;;;;;;22.00;22.00;;;;;12.75;49.06;100628.63;5053170;28;10417;-73
2021/04/05 13:28:00;;;;;;;;;20.75;20.75;;;;;12.33;50.02;100619.66;5054227;28;10686;-72
2021/04/05 13:31:03;;;;;;;;;18.75;18.75;;;;;12.22;50.82;100628.44;5054127;28;10411;-73